KRMG/RMG METAR and TAF weather

Enter ICAO airport designator
Station Type Date Time Source
KRMG METAR 2019/06/16 11:53 UTC NOAA

KRMG 161153Z AUTO 00000KT 10SM CLR 21/18 A3008 RMK AO2 SLP174 T02060178 10206 20178 53017


Station Type Date Time Source
KRMG Decoded METAR 2019/06/16 11:53 UTC NOAA

ROME R. B. RUSSELL AIRPORT, GA, United States (KRMG) 34-21N 085-10W 193M
Jun 16, 2019 - 07:53 AM EDT / 2019.06.16 1153 UTC
Wind: Calm:0
Visibility: 10 mile(s):0
Sky conditions: clear
Temperature: 69.1 F (20.6 C)
Dew Point: 64.0 F (17.8 C)
Relative Humidity: 83%
Pressure (altimeter): 30.08 in. Hg (1018 hPa)
Pressure tendency: 0.05 inches (1.7 hPa) higher than three hours ago
ob: KRMG 161153Z AUTO 00000KT 10SM CLR 21/18 A3008 RMK AO2 SLP174 T02060178 10206 20178 53017
cycle: 12

Station Type Date Time Source
KRMG TAF UTC NOAA

Error!

Example: see airport list